sensor_id;sensor_type;location;lat;lon;timestamp;pressure;altitude;pressure_sealevel;temperature;humidity
25430;BME280;13360;48.152;-1.788;2024-03-23T00:54:41;101793.94;;;12.35;100.00
25430;BME280;13360;48.152;-1.788;2024-03-23T00:57:06;101788.97;;;12.32;100.00
25430;BME280;13360;48.152;-1.788;2024-03-23T00:59:31;101784.25;;;12.32;100.00
25430;BME280;13360;48.152;-1.788;2024-03-23T01:01:56;101800.59;;;12.34;100.00
25430;BME280;13360;48.152;-1.788;2024-03-23T01:04:21;101793.38;;;12.33;100.00
25430;BME280;13360;48.152;-1.788;2024-03-23T01:06:47;101780.09;;;12.30;100.00
25430;BME280;13360;48.152;-1.788;2024-03-23T01:09:12;101789.25;;;12.30;100.00
25430;BME280;13360;48.152;-1.788;2024-03-23T01:11:38;101788.66;;;12.28;100.00
25430;BME280;13360;48.152;-1.788;2024-03-23T01:14:03;101796.72;;;12.30;100.00
25430;BME280;13360;48.152;-1.788;2024-03-23T01:16:29;101797.28;;;12.27;100.00
25430;BME280;13360;48.152;-1.788;2024-03-23T01:18:54;101806.72;;;12.20;100.00
25430;BME280;13360;48.152;-1.788;2024-03-23T01:21:19;101806.16;;;12.18;100.00
25430;BME280;13360;48.152;-1.788;2024-03-23T01:23:44;101795.94;;;12.14;100.00
25430;BME280;13360;48.152;-1.788;2024-03-23T01:26:09;101795.69;;;12.10;100.00
25430;BME280;13360;48.152;-1.788;2024-03-23T01:28:35;101792.09;;;12.00;100.00
25430;BME280;13360;48.152;-1.788;2024-03-23T01:31:00;101799.03;;;11.97;100.00
25430;BME280;13360;48.152;-1.788;2024-03-23T01:33:25;101809.53;;;12.00;100.00
25430;BME280;13360;48.152;-1.788;2024-03-23T01:35:50;101802.34;;;11.99;100.00
25430;BME280;13360;48.152;-1.788;2024-03-23T01:38:16;101799.88;;;11.93;100.00
25430;BME280;13360;48.152;-1.788;2024-03-23T01:40:41;101806.25;;;11.93;100.00
25430;BME280;13360;48.152;-1.788;2024-03-23T01:43:09;101813.44;;;11.89;100.00
25430;BME280;13360;48.152;-1.788;2024-03-23T01:45:34;101804.03;;;11.85;100.00
25430;BME280;13360;48.152;-1.788;2024-03-23T01:48:00;101804.31;;;11.83;100.00
25430;BME280;13360;48.152;-1.788;2024-03-23T01:50:25;101807.63;;;11.80;100.00
25430;BME280;13360;48.152;-1.788;2024-03-23T01:52:51;101810.41;;;11.80;100.00
25430;BME280;13360;48.152;-1.788;2024-03-23T01:55:16;101813.16;;;11.80;100.00
25430;BME280;13360;48.152;-1.788;2024-03-23T01:57:42;101818.97;;;11.79;100.00
25430;BME280;13360;48.152;-1.788;2024-03-23T02:00:07;101820.94;;;11.78;100.00
25430;BME280;13360;48.152;-1.788;2024-03-23T02:02:34;101810.38;;;11.75;100.00
25430;BME280;13360;48.152;-1.788;2024-03-23T02:04:59;101811.22;;;11.76;100.00
25430;BME280;13360;48.152;-1.788;2024-03-23T02:07:24;101804.59;;;11.72;100.00
25430;BME280;13360;48.152;-1.788;2024-03-23T02:09:50;101808.47;;;11.71;100.00
25430;BME280;13360;48.152;-1.788;2024-03-23T02:12:16;101806.25;;;11.68;100.00
25430;BME280;13360;48.152;-1.788;2024-03-23T02:14:42;101817.84;;;11.65;100.00
25430;BME280;13360;48.152;-1.788;2024-03-23T02:17:07;101831.16;;;11.68;100.00
25430;BME280;13360;48.152;-1.788;2024-03-23T02:19:32;101832.81;;;11.69;100.00
25430;BME280;13360;48.152;-1.788;2024-03-23T02:21:57;101837.53;;;11.68;100.00
25430;BME280;13360;48.152;-1.788;2024-03-23T02:24:22;101837.53;;;11.68;100.00
25430;BME280;13360;48.152;-1.788;2024-03-23T02:26:48;101839.75;;;11.66;100.00
25430;BME280;13360;48.152;-1.788;2024-03-23T02:29:13;101831.69;;;11.65;100.00
25430;BME280;13360;48.152;-1.788;2024-03-23T02:31:39;101822.00;;;11.62;100.00
25430;BME280;13360;48.152;-1.788;2024-03-23T02:34:04;101830.59;;;11.60;100.00
25430;BME280;13360;48.152;-1.788;2024-03-23T02:36:29;101838.59;;;11.62;100.00
25430;BME280;13360;48.152;-1.788;2024-03-23T02:38:56;101836.41;;;11.64;100.00
25430;BME280;13360;48.152;-1.788;2024-03-23T02:41:21;101825.06;;;11.60;100.00
25430;BME280;13360;48.152;-1.788;2024-03-23T02:43:51;101833.09;;;11.57;100.00
25430;BME280;13360;48.152;-1.788;2024-03-23T02:46:16;101833.09;;;11.57;100.00
25430;BME280;13360;48.152;-1.788;2024-03-23T02:48:41;101848.31;;;11.59;100.00
25430;BME280;13360;48.152;-1.788;2024-03-23T02:51:07;101857.16;;;11.61;100.00
25430;BME280;13360;48.152;-1.788;2024-03-23T02:53:32;101868.78;;;11.64;100.00
25430;BME280;13360;48.152;-1.788;2024-03-23T02:55:58;101885.09;;;11.65;100.00
25430;BME280;13360;48.152;-1.788;2024-03-23T02:58:23;101893.69;;;11.64;100.00
25430;BME280;13360;48.152;-1.788;2024-03-23T03:00:48;101899.75;;;11.66;100.00
25430;BME280;13360;48.152;-1.788;2024-03-23T03:03:14;101911.69;;;11.66;100.00
25430;BME280;13360;48.152;-1.788;2024-03-23T03:05:39;101910.84;;;11.66;100.00
25430;BME280;13360;48.152;-1.788;2024-03-23T03:08:04;101911.69;;;11.66;100.00
25430;BME280;13360;48.152;-1.788;2024-03-23T03:10:29;101902.28;;;11.67;100.00
25430;BME280;13360;48.152;-1.788;2024-03-23T03:12:55;101906.72;;;11.68;100.00
25430;BME280;13360;48.152;-1.788;2024-03-23T03:15:20;101906.16;;;11.66;100.00
25430;BME280;13360;48.152;-1.788;2024-03-23T03:17:46;101897.28;;;11.64;100.00
25430;BME280;13360;48.152;-1.788;2024-03-23T03:20:11;101900.03;;;11.64;100.00
25430;BME280;13360;48.152;-1.788;2024-03-23T03:22:38;101893.69;;;11.64;100.00
25430;BME280;13360;48.152;-1.788;2024-03-23T03:25:03;101887.59;;;11.61;100.00
25430;BME280;13360;48.152;-1.788;2024-03-23T03:27:30;101885.66;;;11.62;100.00
25430;BME280;13360;48.152;-1.788;2024-03-23T03:29:55;101886.75;;;11.61;100.00
25430;BME280;13360;48.152;-1.788;2024-03-23T03:32:20;101889.81;;;11.59;100.00
25430;BME280;13360;48.152;-1.788;2024-03-23T03:34:46;101888.97;;;11.59;100.00
25430;BME280;13360;48.152;-1.788;2024-03-23T03:37:11;101894.25;;;11.55;100.00
25430;BME280;13360;48.152;-1.788;2024-03-23T03:39:36;101882.91;;;11.52;100.00
25430;BME280;13360;48.152;-1.788;2024-03-23T03:42:02;101890.91;;;11.48;100.00
25430;BME280;13360;48.152;-1.788;2024-03-23T03:44:31;101887.00;;;11.44;100.00
25430;BME280;13360;48.152;-1.788;2024-03-23T03:46:57;101888.41;;;11.42;100.00
25430;BME280;13360;48.152;-1.788;2024-03-23T03:49:22;101898.34;;;11.43;100.00
25430;BME280;13360;48.152;-1.788;2024-03-23T03:51:47;101883.69;;;11.42;100.00
25430;BME280;13360;48.152;-1.788;2024-03-23T03:54:13;101895.59;;;11.43;100.00
25430;BME280;13360;48.152;-1.788;2024-03-23T03:56:38;101885.09;;;11.40;100.00
25430;BME280;13360;48.152;-1.788;2024-03-23T03:59:03;101889.50;;;11.36;100.00
25430;BME280;13360;48.152;-1.788;2024-03-23T04:01:29;101893.38;;;11.35;100.00
25430;BME280;13360;48.152;-1.788;2024-03-23T04:03:54;101892.28;;;11.30;100.00
25430;BME280;13360;48.152;-1.788;2024-03-23T04:06:19;101901.66;;;11.29;100.00
25430;BME280;13360;48.152;-1.788;2024-03-23T04:08:45;101901.66;;;11.29;100.00
25430;BME280;13360;48.152;-1.788;2024-03-23T04:11:10;101900.00;;;11.28;100.00
25430;BME280;13360;48.152;-1.788;2024-03-23T04:13:35;101897.81;;;11.30;100.00
25430;BME280;13360;48.152;-1.788;2024-03-23T04:16:01;101893.09;;;11.31;100.00
25430;BME280;13360;48.152;-1.788;2024-03-23T04:18:26;101897.53;;;11.32;100.00
25430;BME280;13360;48.152;-1.788;2024-03-23T04:20:51;101887.00;;;11.29;100.00
25430;BME280;13360;48.152;-1.788;2024-03-23T04:23:17;101887.28;;;11.27;100.00
25430;BME280;13360;48.152;-1.788;2024-03-23T04:25:42;101883.69;;;11.27;100.00
25430;BME280;13360;48.152;-1.788;2024-03-23T04:28:07;101880.38;;;11.25;100.00
25430;BME280;13360;48.152;-1.788;2024-03-23T04:30:32;101879.53;;;11.24;100.00
25430;BME280;13360;48.152;-1.788;2024-03-23T04:32:57;101873.69;;;11.21;100.00
25430;BME280;13360;48.152;-1.788;2024-03-23T04:35:23;101883.94;;;11.20;100.00
25430;BME280;13360;48.152;-1.788;2024-03-23T04:37:50;101893.06;;;11.21;100.00
25430;BME280;13360;48.152;-1.788;2024-03-23T04:40:17;101890.28;;;11.21;100.00
25430;BME280;13360;48.152;-1.788;2024-03-23T04:42:42;101906.63;;;11.22;100.00
25430;BME280;13360;48.152;-1.788;2024-03-23T04:45:07;101917.41;;;11.24;100.00
25430;BME280;13360;48.152;-1.788;2024-03-23T04:47:33;101922.94;;;11.24;100.00
25430;BME280;13360;48.152;-1.788;2024-03-23T04:50:03;101917.16;;;11.25;100.00
25430;BME280;13360;48.152;-1.788;2024-03-23T04:52:29;101926.56;;;11.24;100.00
25430;BME280;13360;48.152;-1.788;2024-03-23T04:54:54;101919.94;;;11.25;100.00
25430;BME280;13360;48.152;-1.788;2024-03-23T04:57:20;101907.16;;;11.19;100.00
25430;BME280;13360;48.152;-1.788;2024-03-23T04:59:45;101906.06;;;11.15;100.00
25430;BME280;13360;48.152;-1.788;2024-03-23T05:02:10;101900.25;;;11.12;100.00
25430;BME280;13360;48.152;-1.788;2024-03-23T05:04:35;101908.81;;;11.10;100.00
25430;BME280;13360;48.152;-1.788;2024-03-23T05:07:02;101906.31;;;11.09;100.00
25430;BME280;13360;48.152;-1.788;2024-03-23T05:09:27;101901.34;;;11.06;100.00
25430;BME280;13360;48.152;-1.788;2024-03-23T05:11:55;101906.88;;;11.06;100.00
25430;BME280;13360;48.152;-1.788;2024-03-23T05:14:20;101910.75;;;11.05;100.00
25430;BME280;13360;48.152;-1.788;2024-03-23T05:16:45;101904.38;;;11.04;100.00
25430;BME280;13360;48.152;-1.788;2024-03-23T05:19:10;101904.63;;;11.03;100.00
25430;BME280;13360;48.152;-1.788;2024-03-23T05:21:35;101897.69;;;11.00;100.00
25430;BME280;13360;48.152;-1.788;2024-03-23T05:24:01;101891.34;;;10.99;100.00
25430;BME280;13360;48.152;-1.788;2024-03-23T05:26:26;101881.09;;;10.95;100.00
25430;BME280;13360;48.152;-1.788;2024-03-23T05:28:51;101870.03;;;10.90;100.00
25430;BME280;13360;48.152;-1.788;2024-03-23T05:31:23;101874.19;;;10.87;100.00
25430;BME280;13360;48.152;-1.788;2024-03-23T05:33:49;101879.16;;;10.85;100.00
25430;BME280;13360;48.152;-1.788;2024-03-23T05:36:14;101881.34;;;10.83;100.00
25430;BME280;13360;48.152;-1.788;2024-03-23T05:38:39;101871.66;;;10.81;100.00
25430;BME280;13360;48.152;-1.788;2024-03-23T05:41:04;101880.22;;;10.79;100.00
25430;BME280;13360;48.152;-1.788;2024-03-23T05:43:30;101884.09;;;10.78;100.00
25430;BME280;13360;48.152;-1.788;2024-03-23T05:45:56;101887.38;;;10.75;100.00
25430;BME280;13360;48.152;-1.788;2024-03-23T05:48:21;101888.75;;;10.67;100.00
25430;BME280;13360;48.152;-1.788;2024-03-23T05:50:47;101898.13;;;10.66;100.00
25430;BME280;13360;48.152;-1.788;2024-03-23T05:53:12;101896.22;;;10.67;100.00
25430;BME280;13360;48.152;-1.788;2024-03-23T05:55:38;101900.63;;;10.68;100.00
25430;BME280;13360;48.152;-1.788;2024-03-23T05:58:03;101901.47;;;10.68;100.00
25430;BME280;13360;48.152;-1.788;2024-03-23T06:00:28;101893.44;;;10.67;100.00
25430;BME280;13360;48.152;-1.788;2024-03-23T06:02:53;101898.13;;;10.66;100.00
25430;BME280;13360;48.152;-1.788;2024-03-23T06:05:19;101905.88;;;10.64;100.00
25430;BME280;13360;48.152;-1.788;2024-03-23T06:07:44;101896.47;;;10.65;100.00
25430;BME280;13360;48.152;-1.788;2024-03-23T06:10:09;101915.28;;;10.68;100.00
25430;BME280;13360;48.152;-1.788;2024-03-23T06:12:34;101918.03;;;10.63;100.00
25430;BME280;13360;48.152;-1.788;2024-03-23T06:15:00;101908.31;;;10.61;100.00
25430;BME280;13360;48.152;-1.788;2024-03-23T06:17:25;101909.72;;;10.63;100.00
25430;BME280;13360;48.152;-1.788;2024-03-23T06:19:50;101922.75;;;10.68;100.00
25430;BME280;13360;48.152;-1.788;2024-03-23T06:22:15;101916.66;;;10.66;100.00
25430;BME280;13360;48.152;-1.788;2024-03-23T06:24:40;101913.06;;;10.65;100.00
25430;BME280;13360;48.152;-1.788;2024-03-23T06:27:06;101923.28;;;10.65;100.00
25430;BME280;13360;48.152;-1.788;2024-03-23T06:29:31;101926.59;;;10.67;100.00
25430;BME280;13360;48.152;-1.788;2024-03-23T06:31:57;101926.03;;;10.65;100.00
25430;BME280;13360;48.152;-1.788;2024-03-23T06:34:22;101920.50;;;10.65;100.00
25430;BME280;13360;48.152;-1.788;2024-03-23T06:36:48;101924.94;;;10.66;100.00
25430;BME280;13360;48.152;-1.788;2024-03-23T06:39:14;101922.97;;;10.61;100.00
25430;BME280;13360;48.152;-1.788;2024-03-23T06:41:41;101932.59;;;10.54;100.00
25430;BME280;13360;48.152;-1.788;2024-03-23T06:44:06;101941.44;;;10.56;100.00
25430;BME280;13360;48.152;-1.788;2024-03-23T06:46:31;101948.09;;;10.60;100.00
25430;BME280;13360;48.152;-1.788;2024-03-23T06:48:56;101963.63;;;10.66;100.00
25430;BME280;13360;48.152;-1.788;2024-03-23T06:51:21;101955.59;;;10.64;100.00
25430;BME280;13360;48.152;-1.788;2024-03-23T06:53:47;101954.72;;;10.59;100.00
25430;BME280;13360;48.152;-1.788;2024-03-23T06:56:12;101951.44;;;10.62;100.00
25430;BME280;13360;48.152;-1.788;2024-03-23T06:58:37;101943.66;;;10.59;100.00
25430;BME280;13360;48.152;-1.788;2024-03-23T07:01:02;101947.88;;;10.66;100.00
25430;BME280;13360;48.152;-1.788;2024-03-23T07:03:28;101951.75;;;10.71;100.00
25430;BME280;13360;48.152;-1.788;2024-03-23T07:05:57;101952.63;;;10.76;100.00
25430;BME280;13360;48.152;-1.788;2024-03-23T07:08:22;101950.41;;;10.78;100.00
25430;BME280;13360;48.152;-1.788;2024-03-23T07:10:47;101952.06;;;10.79;100.00
25430;BME280;13360;48.152;-1.788;2024-03-23T07:13:13;101952.91;;;10.80;100.00
25430;BME280;13360;48.152;-1.788;2024-03-23T07:15:38;101955.41;;;10.81;100.00
25430;BME280;13360;48.152;-1.788;2024-03-23T07:18:03;101952.63;;;10.81;100.00
25430;BME280;13360;48.152;-1.788;2024-03-23T07:20:28;101953.78;;;10.85;100.00
25430;BME280;13360;48.152;-1.788;2024-03-23T07:22:55;101954.63;;;10.91;100.00
25430;BME280;13360;48.152;-1.788;2024-03-23T07:25:20;101947.19;;;10.96;100.00
25430;BME280;13360;48.152;-1.788;2024-03-23T07:27:47;101952.72;;;11.02;100.00
25430;BME280;13360;48.152;-1.788;2024-03-23T07:30:13;101959.97;;;11.08;100.00
25430;BME280;13360;48.152;-1.788;2024-03-23T07:32:38;101953.34;;;11.14;100.00
25430;BME280;13360;48.152;-1.788;2024-03-23T07:35:03;101963.31;;;11.20;100.00
25430;BME280;13360;48.152;-1.788;2024-03-23T07:37:29;101962.75;;;11.23;100.00
25430;BME280;13360;48.152;-1.788;2024-03-23T07:39:54;101965.03;;;11.31;100.00
25430;BME280;13360;48.152;-1.788;2024-03-23T07:42:19;101957.84;;;11.40;100.00
25430;BME280;13360;48.152;-1.788;2024-03-23T07:44:44;101958.44;;;11.47;100.00
25430;BME280;13360;48.152;-1.788;2024-03-23T07:47:11;101959.00;;;11.54;100.00
25430;BME280;13360;48.152;-1.788;2024-03-23T07:49:37;101953.44;;;11.54;100.00
25430;BME280;13360;48.152;-1.788;2024-03-23T07:52:02;101948.47;;;11.61;100.00
25430;BME280;13360;48.152;-1.788;2024-03-23T07:54:28;101951.81;;;11.69;100.00
25430;BME280;13360;48.152;-1.788;2024-03-23T07:56:53;101952.09;;;11.77;100.00
25430;BME280;13360;48.152;-1.788;2024-03-23T07:59:19;101950.47;;;11.86;100.00
25430;BME280;13360;48.152;-1.788;2024-03-23T08:01:44;101942.47;;;11.90;100.00
25430;BME280;13360;48.152;-1.788;2024-03-23T08:04:10;101954.34;;;12.01;100.00
25430;BME280;13360;48.152;-1.788;2024-03-23T08:06:35;101957.13;;;12.11;100.00
25430;BME280;13360;48.152;-1.788;2024-03-23T08:09:00;101945.75;;;12.23;100.00
25430;BME280;13360;48.152;-1.788;2024-03-23T08:11:26;101952.69;;;12.35;100.00
25430;BME280;13360;48.152;-1.788;2024-03-23T08:13:51;101954.59;;;12.50;100.00
25430;BME280;13360;48.152;-1.788;2024-03-23T08:16:17;101960.34;;;12.69;100.00
25430;BME280;13360;48.152;-1.788;2024-03-23T08:18:42;101950.88;;;12.85;100.00
25430;BME280;13360;48.152;-1.788;2024-03-23T08:21:07;101949.44;;;13.03;100.00
25430;BME280;13360;48.152;-1.788;2024-03-23T08:23:33;101937.16;;;13.24;100.00
25430;BME280;13360;48.152;-1.788;2024-03-23T08:26:01;101932.81;;;13.52;100.00
25430;BME280;13360;48.152;-1.788;2024-03-23T08:28:26;101925.41;;;13.82;100.00
25430;BME280;13360;48.152;-1.788;2024-03-23T08:30:55;101903.84;;;14.02;100.00
25430;BME280;13360;48.152;-1.788;2024-03-23T08:33:20;101894.06;;;14.34;100.00
25430;BME280;13360;48.152;-1.788;2024-03-23T08:35:55;101875.44;;;14.63;100.00
25430;BME280;13360;48.152;-1.788;2024-03-23T08:38:21;101862.94;;;14.85;100.00
25430;BME280;13360;48.152;-1.788;2024-03-23T08:40:46;101871.44;;;15.12;100.00
25430;BME280;13360;48.152;-1.788;2024-03-23T08:43:12;101872.50;;;15.54;100.00
25430;BME280;13360;48.152;-1.788;2024-03-23T08:45:37;101876.47;;;15.85;100.00
25430;BME280;13360;48.152;-1.788;2024-03-23T08:48:02;101879.63;;;16.11;100.00
25430;BME280;13360;48.152;-1.788;2024-03-23T08:50:27;101877.19;;;16.37;100.00
25430;BME280;13360;48.152;-1.788;2024-03-23T08:52:53;101881.66;;;16.52;100.00
25430;BME280;13360;48.152;-1.788;2024-03-23T08:55:18;101874.53;;;16.87;100.00
25430;BME280;13360;48.152;-1.788;2024-03-23T08:57:43;101874.56;;;17.23;100.00
25430;BME280;13360;48.152;-1.788;2024-03-23T09:00:09;101874.34;;;17.33;100.00
25430;BME280;13360;48.152;-1.788;2024-03-23T09:02:36;101874.72;;;17.63;100.00
25430;BME280;13360;48.152;-1.788;2024-03-23T09:05:01;101880.44;;;17.72;100.00
25430;BME280;13360;48.152;-1.788;2024-03-23T09:07:29;101887.66;;;17.95;100.00
25430;BME280;13360;48.152;-1.788;2024-03-23T09:09:55;101891.59;;;18.16;100.00
25430;BME280;13360;48.152;-1.788;2024-03-23T09:12:20;101884.13;;;18.34;100.00
25430;BME280;13360;48.152;-1.788;2024-03-23T09:14:45;101896.19;;;18.52;100.00
25430;BME280;13360;48.152;-1.788;2024-03-23T09:17:10;101890.19;;;18.67;100.00
25430;BME280;13360;48.152;-1.788;2024-03-23T09:19:35;101879.53;;;18.78;100.00
25430;BME280;13360;48.152;-1.788;2024-03-23T09:22:01;101891.13;;;19.02;100.00
25430;BME280;13360;48.152;-1.788;2024-03-23T09:24:26;101893.28;;;19.14;100.00
25430;BME280;13360;48.152;-1.788;2024-03-23T09:26:51;101895.94;;;19.28;100.00
25430;BME280;13360;48.152;-1.788;2024-03-23T09:29:17;101888.50;;;19.06;100.00
25430;BME280;13360;48.152;-1.788;2024-03-23T09:31:42;101884.53;;;19.15;100.00
25430;BME280;13360;48.152;-1.788;2024-03-23T09:34:08;101871.88;;;19.18;100.00
25430;BME280;13360;48.152;-1.788;2024-03-23T09:36:33;101884.59;;;19.50;100.00
25430;BME280;13360;48.152;-1.788;2024-03-23T09:38:58;101881.47;;;19.69;100.00
25430;BME280;13360;48.152;-1.788;2024-03-23T09:41:23;101883.78;;;19.84;100.00
25430;BME280;13360;48.152;-1.788;2024-03-23T09:43:51;101887.06;;;19.86;100.00
25430;BME280;13360;48.152;-1.788;2024-03-23T09:46:17;101875.50;;;20.05;100.00
25430;BME280;13360;48.152;-1.788;2024-03-23T09:48:42;101884.00;;;20.26;100.00
25430;BME280;13360;48.152;-1.788;2024-03-23T09:51:08;101883.50;;;20.41;100.00
25430;BME280;13360;48.152;-1.788;2024-03-23T09:53:34;101900.22;;;20.20;100.00
25430;BME280;13360;48.152;-1.788;2024-03-23T09:56:00;101879.84;;;20.32;100.00
25430;BME280;13360;48.152;-1.788;2024-03-23T09:58:25;101885.09;;;20.51;100.00
25430;BME280;13360;48.152;-1.788;2024-03-23T10:00:50;101880.53;;;20.29;100.00
25430;BME280;13360;48.152;-1.788;2024-03-23T10:03:15;101875.91;;;20.33;100.00
25430;BME280;13360;48.152;-1.788;2024-03-23T10:05:40;101878.84;;;19.72;100.00
25430;BME280;13360;48.152;-1.788;2024-03-23T10:10:38;101880.47;;;19.99;100.00
25430;BME280;13360;48.152;-1.788;2024-03-23T10:13:03;101883.63;;;19.81;100.00
25430;BME280;13360;48.152;-1.788;2024-03-23T10:15:28;101881.47;;;19.69;100.00
25430;BME280;13360;48.152;-1.788;2024-03-23T10:17:54;101871.06;;;19.52;100.00
25430;BME280;13360;48.152;-1.788;2024-03-23T10:20:19;101922.69;;;19.77;100.00
25430;BME280;13360;48.152;-1.788;2024-03-23T10:22:47;101875.03;;;19.77;100.00
25430;BME280;13360;48.152;-1.788;2024-03-23T10:25:13;101850.28;;;19.36;100.00
25430;BME280;13360;48.152;-1.788;2024-03-23T10:27:38;101869.78;;;19.58;100.00
25430;BME280;13360;48.152;-1.788;2024-03-23T10:30:08;101851.44;;;19.26;100.00
25430;BME280;13360;48.152;-1.788;2024-03-23T10:32:33;101848.81;;;19.04;100.00
25430;BME280;13360;48.152;-1.788;2024-03-23T10:37:40;101869.00;;;18.44;100.00
25430;BME280;13360;48.152;-1.788;2024-03-23T10:40:05;101870.31;;;18.38;100.00
25430;BME280;13360;48.152;-1.788;2024-03-23T10:42:30;101885.63;;;18.49;100.00
25430;BME280;13360;48.152;-1.788;2024-03-23T10:44:58;101841.50;;;18.37;100.00
25430;BME280;13360;48.152;-1.788;2024-03-23T10:47:23;101880.84;;;18.41;100.00
25430;BME280;13360;48.152;-1.788;2024-03-23T10:49:48;101834.72;;;18.29;100.00
25430;BME280;13360;48.152;-1.788;2024-03-23T10:52:13;101843.84;;;18.44;100.00
25430;BME280;13360;48.152;-1.788;2024-03-23T10:54:39;101832.28;;;18.37;100.00
25430;BME280;13360;48.152;-1.788;2024-03-23T10:57:08;101835.38;;;18.26;100.00
25430;BME280;13360;48.152;-1.788;2024-03-23T10:59:34;101828.41;;;17.84;100.00
25430;BME280;13360;48.152;-1.788;2024-03-23T11:02:02;101851.34;;;17.95;100.00
25430;BME280;13360;48.152;-1.788;2024-03-23T11:04:38;101860.41;;;18.01;100.00
25430;BME280;13360;48.152;-1.788;2024-03-23T11:07:28;101843.88;;;17.90;100.00
25430;BME280;13360;48.152;-1.788;2024-03-23T11:09:49;101841.50;;;17.75;100.00
25430;BME280;13360;48.152;-1.788;2024-03-23T11:14:50;101826.59;;;17.66;100.00
25430;BME280;13360;48.152;-1.788;2024-03-23T11:17:19;101857.31;;;17.80;100.00
25430;BME280;13360;48.152;-1.788;2024-03-23T11:19:49;101836.59;;;17.81;100.00
25430;BME280;13360;48.152;-1.788;2024-03-23T11:22:17;101804.34;;;17.75;100.00
25430;BME280;13360;48.152;-1.788;2024-03-23T11:27:44;101839.69;;;17.71;100.00
25430;BME280;13360;48.152;-1.788;2024-03-23T11:30:13;101785.97;;;17.60;100.00
25430;BME280;13360;48.152;-1.788;2024-03-23T11:32:39;101801.91;;;17.59;100.00
25430;BME280;13360;48.152;-1.788;2024-03-23T11:35:04;101774.13;;;17.54;100.00
25430;BME280;13360;48.152;-1.788;2024-03-23T11:37:30;101796.19;;;17.64;100.00
25430;BME280;13360;48.152;-1.788;2024-03-23T11:39:55;101803.84;;;17.73;100.00
25430;BME280;13360;48.152;-1.788;2024-03-23T11:42:20;101818.22;;;17.88;100.00
25430;BME280;13360;48.152;-1.788;2024-03-23T11:44:46;101784.56;;;17.93;100.00
25430;BME280;13360;48.152;-1.788;2024-03-23T11:47:12;101763.53;;;17.96;100.00
25430;BME280;13360;48.152;-1.788;2024-03-23T11:49:37;101762.06;;;17.98;100.00
25430;BME280;13360;48.152;-1.788;2024-03-23T11:52:05;101765.94;;;17.89;100.00
25430;BME280;13360;48.152;-1.788;2024-03-23T11:54:31;101758.72;;;17.65;100.00
25430;BME280;13360;48.152;-1.788;2024-03-23T11:57:03;101798.25;;;17.73;100.00
25430;BME280;13360;48.152;-1.788;2024-03-23T12:01:57;101805.59;;;17.91;100.00
25430;BME280;13360;48.152;-1.788;2024-03-23T12:04:32;101757.84;;;17.79;100.00
25430;BME280;13360;48.152;-1.788;2024-03-23T12:07:16;101760.16;;;17.77;100.00
25430;BME280;13360;48.152;-1.788;2024-03-23T12:09:44;101776.69;;;17.95;100.00
25430;BME280;13360;48.152;-1.788;2024-03-23T12:12:15;101770.59;;;17.93;100.00
25430;BME280;13360;48.152;-1.788;2024-03-23T12:14:41;101747.03;;;17.86;100.00
25430;BME280;13360;48.152;-1.788;2024-03-23T12:17:10;101747.84;;;17.86;100.00
25430;BME280;13360;48.152;-1.788;2024-03-23T12:19:35;101735.06;;;17.63;100.00
25430;BME280;13360;48.152;-1.788;2024-03-23T12:22:00;101733.41;;;17.31;100.00
25430;BME280;13360;48.152;-1.788;2024-03-23T12:24:27;101781.72;;;17.40;100.00
25430;BME280;13360;48.152;-1.788;2024-03-23T12:26:52;101784.03;;;17.38;100.00
25430;BME280;13360;48.152;-1.788;2024-03-23T12:29:17;101771.56;;;17.22;100.00
25430;BME280;13360;48.152;-1.788;2024-03-23T12:31:43;101819.72;;;17.27;100.00
25430;BME280;13360;48.152;-1.788;2024-03-23T12:34:09;101817.91;;;17.23;100.00
25430;BME280;13360;48.152;-1.788;2024-03-23T12:36:34;101814.97;;;17.28;100.00
25430;BME280;13360;48.152;-1.788;2024-03-23T12:38:59;101806.00;;;17.53;100.00
25430;BME280;13360;48.152;-1.788;2024-03-23T12:41:25;101794.38;;;17.60;100.00
25430;BME280;13360;48.152;-1.788;2024-03-23T12:43:50;101787.81;;;17.64;100.00
25430;BME280;13360;48.152;-1.788;2024-03-23T12:46:15;101773.47;;;17.57;100.00
25430;BME280;13360;48.152;-1.788;2024-03-23T12:48:41;101768.72;;;17.58;100.00
25430;BME280;13360;48.152;-1.788;2024-03-23T12:51:07;101742.75;;;17.57;100.00
25430;BME280;13360;48.152;-1.788;2024-03-23T12:53:32;101767.44;;;17.64;100.00
25430;BME280;13360;48.152;-1.788;2024-03-23T12:55:58;101759.75;;;17.70;100.00
25430;BME280;13360;48.152;-1.788;2024-03-23T12:58:23;101716.78;;;17.57;100.00
25430;BME280;13360;48.152;-1.788;2024-03-23T13:00:49;101730.56;;;17.76;100.00
25430;BME280;13360;48.152;-1.788;2024-03-23T13:03:14;101715.13;;;17.78;100.00
25430;BME280;13360;48.152;-1.788;2024-03-23T13:05:40;101724.50;;;17.82;100.00
25430;BME280;13360;48.152;-1.788;2024-03-23T13:08:06;101729.50;;;17.94;100.00
25430;BME280;13360;48.152;-1.788;2024-03-23T13:10:31;101705.66;;;17.96;100.00
25430;BME280;13360;48.152;-1.788;2024-03-23T13:12:56;101675.69;;;17.80;100.00
25430;BME280;13360;48.152;-1.788;2024-03-23T13:15:21;101676.69;;;17.53;100.00
25430;BME280;13360;48.152;-1.788;2024-03-23T13:17:47;101697.38;;;17.52;100.00
25430;BME280;13360;48.152;-1.788;2024-03-23T13:20:12;101705.44;;;17.53;100.00
25430;BME280;13360;48.152;-1.788;2024-03-23T13:22:39;101679.41;;;17.44;100.00
25430;BME280;13360;48.152;-1.788;2024-03-23T13:25:05;101668.53;;;17.34;100.00
25430;BME280;13360;48.152;-1.788;2024-03-23T13:27:30;101688.94;;;17.43;100.00
25430;BME280;13360;48.152;-1.788;2024-03-23T13:29:55;101671.72;;;17.19;100.00